createdAt,value
2022-09-14T00:02:04.511Z,21.77
2022-09-14T00:14:03.311Z,25.60
2022-09-14T00:56:33.304Z,25.35
2022-09-14T01:05:53.143Z,13.48
2022-09-14T01:08:25.564Z,15.55
2022-09-14T01:10:57.028Z,10.05
2022-09-14T01:13:08.769Z,18.85
2022-09-14T01:15:17.969Z,8.27
2022-09-14T01:17:30.837Z,13.85
2022-09-14T01:19:51.375Z,14.90
2022-09-14T01:21:55.742Z,11.25
2022-09-14T01:23:59.640Z,13.65
2022-09-14T01:28:05.319Z,10.20
2022-09-14T01:32:27.370Z,11.00
2022-09-14T01:34:33.377Z,13.65
2022-09-14T01:36:36.722Z,20.38
2022-09-14T01:38:41.522Z,16.15
2022-09-14T01:40:44.852Z,16.17
2022-09-14T01:42:50.789Z,13.13
2022-09-14T01:44:55.979Z,20.33
2022-09-14T01:49:19.263Z,12.38
2022-09-14T01:51:24.447Z,18.95
2022-09-14T01:53:30.526Z,12.68
2022-09-14T01:55:39.971Z,15.52
2022-09-14T01:57:50.443Z,20.17
2022-09-14T02:00:07.064Z,14.93
2022-09-14T02:02:26.772Z,20.25
2022-09-14T02:04:45.690Z,16.33
2022-09-14T02:06:48.671Z,17.15
2022-09-14T02:09:03.916Z,29.13
2022-09-14T02:11:06.497Z,27.50
2022-09-14T02:13:08.854Z,23.92
2022-09-14T02:15:16.705Z,23.98
2022-09-14T02:17:21.877Z,30.85
2022-09-14T02:21:42.763Z,26.77
2022-09-14T02:23:47.234Z,42.17
2022-09-14T02:25:49.148Z,35.65
2022-09-14T02:27:52.698Z,36.05
2022-09-14T02:29:58.742Z,35.00
2022-09-14T02:32:02.116Z,34.28
2022-09-14T02:34:23.881Z,28.58
2022-09-14T02:36:46.869Z,37.33
2022-09-14T02:38:53.143Z,28.23
2022-09-14T02:41:10.543Z,24.33
2022-09-14T02:43:18.961Z,24.83
2022-09-14T02:45:41.933Z,26.95
2022-09-14T02:47:55.693Z,24.52
2022-09-14T02:50:11.616Z,20.00
2022-09-14T02:52:19.725Z,33.40
2022-09-14T02:54:25.585Z,23.35
2022-09-14T02:56:28.666Z,19.70
2022-09-14T02:58:35.291Z,25.87
2022-09-14T03:00:38.823Z,27.88
2022-09-14T03:02:41.054Z,29.58
2022-09-14T03:04:43.245Z,31.75
2022-09-14T03:06:46.516Z,24.88
2022-09-14T03:08:52.361Z,31.88
2022-09-14T03:11:01.689Z,26.90
2022-09-14T03:13:22.760Z,23.73
2022-09-14T03:15:42.017Z,24.70
2022-09-14T03:18:14.265Z,31.95
2022-09-14T03:20:43.196Z,31.75
2022-09-14T03:23:13.599Z,31.70
2022-09-14T03:25:28.079Z,23.70
2022-09-14T03:27:45.450Z,21.98
2022-09-14T03:30:23.040Z,25.60
2022-09-14T03:32:42.206Z,25.40
2022-09-14T03:35:08.043Z,17.42
2022-09-14T03:37:35.465Z,25.40
2022-09-14T03:40:04.939Z,23.33
2022-09-14T03:42:15.287Z,23.52
2022-09-14T03:44:17.231Z,25.55
2022-09-14T03:46:21.732Z,23.08
2022-09-14T03:48:24.759Z,18.58
2022-09-14T03:50:27.499Z,23.45
2022-09-14T03:52:30.029Z,38.60
2022-09-14T03:54:32.290Z,24.02
2022-09-14T03:56:34.331Z,28.85
2022-09-14T03:58:36.924Z,24.58
2022-09-14T04:03:07.826Z,26.83
2022-09-14T04:05:21.614Z,23.00
2022-09-14T04:07:25.979Z,21.73
2022-09-14T04:11:44.329Z,23.83
2022-09-14T04:13:52.700Z,22.83
2022-09-14T04:15:58.901Z,24.35
2022-09-14T04:18:01.246Z,25.92
2022-09-14T04:20:03.560Z,35.15
2022-09-14T04:22:05.609Z,35.80
2022-09-14T04:24:16.145Z,29.77
2022-09-14T04:26:20.922Z,36.85
2022-09-14T04:28:23.271Z,48.30
2022-09-14T04:30:28.131Z,29.15
2022-09-14T04:32:34.245Z,32.53
2022-09-14T04:34:37.011Z,27.20
2022-09-14T04:36:39.069Z,31.40
2022-09-14T04:38:41.890Z,49.80
2022-09-14T04:40:43.880Z,36.47
2022-09-14T04:42:46.049Z,37.00
2022-09-14T04:44:47.972Z,37.88
2022-09-14T04:46:49.888Z,39.22
2022-09-14T04:48:55.656Z,33.38
2022-09-14T04:51:00.884Z,31.83
2022-09-14T04:53:03.375Z,35.83
2022-09-14T04:55:05.915Z,40.38
2022-09-14T04:57:07.765Z,46.92
2022-09-14T04:59:10.770Z,51.42
2022-09-14T05:01:13.701Z,41.50
2022-09-14T05:03:16.068Z,38.70
2022-09-14T05:05:18.259Z,40.15
2022-09-14T05:07:23.647Z,42.65
2022-09-14T05:09:27.042Z,45.67
2022-09-14T05:11:29.992Z,41.15
2022-09-14T05:13:31.779Z,46.20
2022-09-14T05:15:33.616Z,40.53
2022-09-14T05:17:35.990Z,43.67
2022-09-14T05:19:38.233Z,43.13
2022-09-14T05:21:40.239Z,42.35
2022-09-14T05:23:42.345Z,45.42
2022-09-14T05:25:44.326Z,39.67
2022-09-14T05:27:46.372Z,38.67
2022-09-14T05:29:48.620Z,37.42
2022-09-14T05:31:50.566Z,41.50
2022-09-14T05:33:53.033Z,41.58
2022-09-14T05:35:59.923Z,41.50
2022-09-14T05:38:01.518Z,46.70
2022-09-14T05:40:03.352Z,40.63
2022-09-14T05:42:05.225Z,38.65
2022-09-14T05:44:06.881Z,44.50
2022-09-14T05:46:13.596Z,39.45
2022-09-14T05:48:15.362Z,43.35
2022-09-14T05:50:17.276Z,44.75
2022-09-14T05:52:18.956Z,51.35
2022-09-14T05:54:20.746Z,59.08
2022-09-14T05:56:24.183Z,51.08
2022-09-14T05:58:26.775Z,50.50
2022-09-14T06:00:28.688Z,51.13
2022-09-14T06:02:30.494Z,60.55
2022-09-14T06:04:32.515Z,50.95
2022-09-14T06:06:34.352Z,54.33
2022-09-14T06:08:35.974Z,57.53
2022-09-14T06:10:37.738Z,68.25
2022-09-14T06:12:39.295Z,54.20
2022-09-14T06:14:42.812Z,55.22
2022-09-14T06:16:44.431Z,53.50
2022-09-14T06:18:50.800Z,63.70
2022-09-14T06:20:57.002Z,60.70
2022-09-14T06:23:02.653Z,58.85
2022-09-14T06:25:08.961Z,56.17
2022-09-14T06:27:16.055Z,53.88
2022-09-14T06:29:22.524Z,68.03
2022-09-14T06:31:29.557Z,53.42
2022-09-14T06:33:37.569Z,61.20
2022-09-14T06:35:44.565Z,56.65
2022-09-14T06:37:51.438Z,60.10
2022-09-14T06:39:57.271Z,52.03
2022-09-14T06:42:03.888Z,57.38
2022-09-14T06:44:10.523Z,57.72
2022-09-14T06:46:18.356Z,49.95
2022-09-14T06:48:20.718Z,61.35
2022-09-14T06:50:22.370Z,62.97
2022-09-14T06:52:23.971Z,56.72
2022-09-14T06:54:25.579Z,65.07
2022-09-14T06:56:27.983Z,55.70
2022-09-14T06:58:29.444Z,59.97
2022-09-14T07:00:31.366Z,63.13
2022-09-14T07:02:33.267Z,51.13
2022-09-14T07:04:36.854Z,69.03
2022-09-14T07:06:39.983Z,53.75
2022-09-14T07:08:41.596Z,53.00
2022-09-14T07:10:44.182Z,56.47
2022-09-14T07:12:45.710Z,54.72
2022-09-14T07:14:47.440Z,45.42
2022-09-14T07:16:49.202Z,56.35
2022-09-14T07:18:58.030Z,40.90
2022-09-14T07:21:09.557Z,33.15
2022-09-14T07:23:13.240Z,39.22
2022-09-14T07:25:15.021Z,36.05
2022-09-14T07:27:16.564Z,39.55
2022-09-14T07:29:19.340Z,34.05
2022-09-14T07:31:29.000Z,32.00
2022-09-14T07:33:31.036Z,23.75
2022-09-14T07:35:32.948Z,30.92
2022-09-14T07:37:34.783Z,30.73
2022-09-14T07:39:36.460Z,28.25
2022-09-14T07:41:38.366Z,23.98
2022-09-14T07:43:40.039Z,26.50
2022-09-14T07:45:41.554Z,30.13
2022-09-14T07:47:43.109Z,23.10
2022-09-14T07:49:44.737Z,20.17
2022-09-14T07:51:46.379Z,30.15
2022-09-14T07:53:47.962Z,25.10
2022-09-14T07:55:49.371Z,21.08
2022-09-14T07:57:56.477Z,19.20
2022-09-14T07:59:58.494Z,18.77
2022-09-14T08:02:00.271Z,20.70
2022-09-14T08:04:05.437Z,20.30
2022-09-14T08:06:11.427Z,21.58
2022-09-14T08:08:12.854Z,18.00
2022-09-14T08:10:14.764Z,16.67
2022-09-14T08:12:16.472Z,21.85
2022-09-14T08:14:18.173Z,21.75
2022-09-14T08:16:20.453Z,23.55
2022-09-14T08:18:21.914Z,16.52
2022-09-14T08:20:23.511Z,18.75
2022-09-14T08:22:26.121Z,12.48
2022-09-14T08:24:27.562Z,9.60
2022-09-14T08:26:29.362Z,11.77
2022-09-14T08:28:31.066Z,11.05
2022-09-14T08:30:33.187Z,12.13
2022-09-14T08:32:34.666Z,15.55
2022-09-14T08:34:36.124Z,11.98
2022-09-14T08:36:38.584Z,9.13
2022-09-14T08:38:40.325Z,10.48
2022-09-14T08:40:45.303Z,5.07
2022-09-14T08:42:47.322Z,9.93
2022-09-14T08:44:55.589Z,6.43
2022-09-14T08:47:02.755Z,7.55
2022-09-14T08:49:10.018Z,11.95
2022-09-14T08:51:11.403Z,8.90
2022-09-14T08:53:13.072Z,8.35
2022-09-14T08:55:17.558Z,8.95
2022-09-14T08:57:22.723Z,6.03
2022-09-14T08:59:50.508Z,5.25
2022-09-14T09:01:54.838Z,5.70
2022-09-14T09:04:05.833Z,7.28
2022-09-14T09:06:26.039Z,9.88
2022-09-14T09:08:43.684Z,9.13
2022-09-14T09:10:46.484Z,9.30
2022-09-14T09:12:51.078Z,6.80
2022-09-14T09:14:54.885Z,11.90
2022-09-14T09:16:58.033Z,12.88
2022-09-14T09:19:01.506Z,6.10
2022-09-14T09:21:10.813Z,7.82
2022-09-14T09:23:15.078Z,4.40
2022-09-14T09:25:42.991Z,7.40
2022-09-14T09:27:51.543Z,4.47
2022-09-14T09:29:58.507Z,6.88
2022-09-14T09:32:02.753Z,6.65
2022-09-14T09:34:13.880Z,5.72
2022-09-14T09:36:24.410Z,4.50
2022-09-14T09:38:29.557Z,4.13
2022-09-14T09:40:35.868Z,5.40
2022-09-14T09:42:38.908Z,4.97
2022-09-14T09:45:04.052Z,4.10
2022-09-14T09:47:13.979Z,9.10
2022-09-14T09:49:28.678Z,7.78
2022-09-14T09:51:40.153Z,8.45
2022-09-14T09:54:10.394Z,4.05
2022-09-14T09:56:22.657Z,3.45
2022-09-14T09:58:29.148Z,7.22
2022-09-14T10:00:30.551Z,4.38
2022-09-14T10:02:32.158Z,5.72
2022-09-14T10:04:35.302Z,3.47
2022-09-14T10:06:46.735Z,10.25
2022-09-14T10:08:49.176Z,7.00
2022-09-14T10:10:50.634Z,8.70
2022-09-14T10:12:53.326Z,7.82
2022-09-14T10:15:26.561Z,7.82
2022-09-14T10:17:28.102Z,5.50
2022-09-14T10:19:30.624Z,5.38
2022-09-14T10:21:32.044Z,7.72
2022-09-14T10:23:36.345Z,7.07
2022-09-14T10:25:37.951Z,5.45
2022-09-14T10:27:41.380Z,7.43
2022-09-14T10:29:43.965Z,12.23
2022-09-14T10:31:46.986Z,4.60
2022-09-14T10:33:53.598Z,12.27
2022-09-14T10:36:03.867Z,6.25
2022-09-14T10:38:15.974Z,2.90
2022-09-14T10:40:23.121Z,9.45
2022-09-14T10:42:24.529Z,5.32
2022-09-14T10:44:34.909Z,8.35
2022-09-14T10:47:04.906Z,5.57
2022-09-14T10:49:26.251Z,5.70
2022-09-14T10:51:29.639Z,10.77
2022-09-14T10:53:31.457Z,4.97
2022-09-14T10:55:42.149Z,10.57
2022-09-14T10:58:24.649Z,4.80
2022-09-14T11:00:26.676Z,6.90
2022-09-14T11:02:34.244Z,2.97
2022-09-14T11:04:54.294Z,7.13
2022-09-14T11:07:12.461Z,8.18
2022-09-14T11:09:26.037Z,4.15
2022-09-14T11:11:27.587Z,10.43
2022-09-14T11:13:29.143Z,7.05
2022-09-14T11:15:36.897Z,10.23
2022-09-14T11:17:45.518Z,7.03
2022-09-14T11:19:59.038Z,11.40
2022-09-14T11:22:03.189Z,11.73
2022-09-14T11:24:23.720Z,6.45
2022-09-14T11:26:42.055Z,3.90
2022-09-14T11:28:46.646Z,5.75
2022-09-14T11:30:55.537Z,12.30
2022-09-14T11:33:07.777Z,3.28
2022-09-14T11:35:20.465Z,10.18
2022-09-14T11:37:31.302Z,7.70
2022-09-14T11:39:36.825Z,8.38
2022-09-14T11:41:42.736Z,5.10
2022-09-14T11:43:48.710Z,4.55
2022-09-14T11:46:16.513Z,3.42
2022-09-14T11:48:43.969Z,5.65
2022-09-14T11:50:46.726Z,6.45
2022-09-14T11:52:51.434Z,2.55
2022-09-14T11:54:53.303Z,5.22
2022-09-14T11:57:00.046Z,4.97
2022-09-14T11:59:04.197Z,4.43
2022-09-14T12:01:26.474Z,7.75
2022-09-14T12:03:51.820Z,6.35
2022-09-14T12:05:53.589Z,6.68
2022-09-14T12:08:02.989Z,3.10
2022-09-14T12:10:16.659Z,6.18
2022-09-14T12:12:28.278Z,4.55
2022-09-14T12:14:36.686Z,6.40
2022-09-14T12:16:58.396Z,2.95
2022-09-14T12:19:00.237Z,9.15
2022-09-14T12:21:01.762Z,4.13
2022-09-14T12:23:27.057Z,3.55
2022-09-14T12:25:28.698Z,5.50
2022-09-14T12:27:35.445Z,4.00
2022-09-14T12:29:39.811Z,3.60
2022-09-14T12:32:00.198Z,4.28
2022-09-14T12:34:10.511Z,5.80
2022-09-14T12:36:22.845Z,4.18
2022-09-14T12:38:33.223Z,6.07
2022-09-14T12:40:40.451Z,3.78
2022-09-14T12:42:50.040Z,7.47
2022-09-14T12:44:57.135Z,6.88
2022-09-14T12:47:21.794Z,3.80
2022-09-14T12:49:32.943Z,2.58
2022-09-14T12:51:51.203Z,2.97
2022-09-14T12:54:14.244Z,3.92
2022-09-14T12:56:25.296Z,3.03
2022-09-14T12:58:31.567Z,1.85
2022-09-14T13:00:45.337Z,6.40
2022-09-14T13:03:02.575Z,6.55
2022-09-14T13:05:08.102Z,5.20
2022-09-14T13:07:16.533Z,4.72
2022-09-14T13:09:22.655Z,5.70
2022-09-14T13:11:26.768Z,4.30
2022-09-14T13:13:31.658Z,5.80
2022-09-14T13:15:34.631Z,2.88
2022-09-14T13:17:36.069Z,2.97
2022-09-14T13:19:38.711Z,7.82
2022-09-14T13:21:45.942Z,7.35
2022-09-14T13:23:47.849Z,5.72
2022-09-14T13:25:50.100Z,3.25
2022-09-14T13:27:51.618Z,8.23
2022-09-14T13:30:11.628Z,3.28
2022-09-14T13:32:15.316Z,1.63
2022-09-14T13:36:20.558Z,3.63
2022-09-14T13:38:25.752Z,5.60
2022-09-14T13:40:29.362Z,2.35
2022-09-14T13:44:36.893Z,11.10
2022-09-14T13:46:38.661Z,5.03
2022-09-14T13:48:42.513Z,3.10
2022-09-14T13:50:46.109Z,2.13
2022-09-14T13:53:01.805Z,4.95
2022-09-14T13:55:07.763Z,5.25
2022-09-14T13:57:15.191Z,5.00
2022-09-14T13:59:18.086Z,1.90
2022-09-14T14:01:24.885Z,6.38
2022-09-14T14:03:30.988Z,4.72
2022-09-14T14:05:41.039Z,5.93
2022-09-14T14:07:45.511Z,5.72
2022-09-14T14:09:50.909Z,4.40
2022-09-14T14:11:54.955Z,4.18
2022-09-14T14:13:58.137Z,3.83
2022-09-14T14:16:19.856Z,1.95
2022-09-14T14:18:36.678Z,7.05
2022-09-14T14:20:38.988Z,6.70
2022-09-14T14:22:54.165Z,4.88
2022-09-14T14:25:12.923Z,6.32
2022-09-14T14:27:29.715Z,5.47
2022-09-14T14:29:31.147Z,4.20
2022-09-14T14:31:34.017Z,5.70
2022-09-14T14:33:36.788Z,7.03
2022-09-14T14:35:38.239Z,4.72
2022-09-14T14:37:39.610Z,3.17
2022-09-14T14:39:41.289Z,4.20
2022-09-14T14:41:42.837Z,6.57
2022-09-14T14:43:46.886Z,6.18
2022-09-14T14:45:48.709Z,3.03
2022-09-14T14:47:53.604Z,2.65
2022-09-14T14:49:55.197Z,5.65
2022-09-14T14:51:56.694Z,4.15
2022-09-14T14:53:58.081Z,6.25
2022-09-14T14:55:59.754Z,4.40
2022-09-14T14:58:02.572Z,2.90
2022-09-14T15:00:05.238Z,4.07
2022-09-14T15:02:06.922Z,5.78
2022-09-14T15:04:08.556Z,3.30
2022-09-14T15:06:27.914Z,3.58
2022-09-14T15:08:29.291Z,3.15
2022-09-14T15:10:31.502Z,2.67
2022-09-14T15:12:33.334Z,5.70
2022-09-14T15:14:34.754Z,8.02
2022-09-14T15:16:36.206Z,4.65
2022-09-14T15:18:37.729Z,6.63
2022-09-14T15:20:39.312Z,2.60
2022-09-14T15:22:42.382Z,2.95
2022-09-14T15:24:44.321Z,2.67
2022-09-14T15:26:45.969Z,3.75
2022-09-14T15:28:48.658Z,4.28
2022-09-14T15:30:51.805Z,4.63
2022-09-14T15:32:54.770Z,4.72
2022-09-14T15:34:56.524Z,6.57
2022-09-14T15:37:05.387Z,5.18
2022-09-14T15:39:18.224Z,2.38
2022-09-14T15:41:24.536Z,5.32
2022-09-14T15:43:29.903Z,5.65
2022-09-14T15:45:36.250Z,7.53
2022-09-14T15:47:44.251Z,5.38
2022-09-14T15:49:57.114Z,4.45
2022-09-14T15:52:00.821Z,3.95
2022-09-14T15:54:05.511Z,3.70
2022-09-14T15:56:21.820Z,3.65
2022-09-14T15:58:32.494Z,2.92
2022-09-14T16:00:44.931Z,4.57
2022-09-14T16:02:48.910Z,7.10
2022-09-14T16:04:50.428Z,2.85
2022-09-14T16:06:52.039Z,5.43
2022-09-14T16:08:53.568Z,3.50
2022-09-14T16:10:59.184Z,4.72
2022-09-14T16:13:00.871Z,4.05
2022-09-14T16:15:02.243Z,3.63
2022-09-14T16:17:05.133Z,6.85
2022-09-14T16:19:08.699Z,3.37
2022-09-14T16:21:21.463Z,4.35
2022-09-14T16:23:22.970Z,3.30
2022-09-14T16:25:24.443Z,2.65
2022-09-14T16:27:25.906Z,5.85
2022-09-14T16:29:27.635Z,8.10
2022-09-14T16:31:30.532Z,5.25
2022-09-14T16:33:35.819Z,8.47
2022-09-14T16:35:37.402Z,4.90
2022-09-14T16:37:39.239Z,1.67
2022-09-14T16:39:41.230Z,2.88
2022-09-14T16:41:43.062Z,4.10
2022-09-14T16:43:44.740Z,4.53
2022-09-14T16:45:46.412Z,3.80
2022-09-14T16:47:48.145Z,4.60
2022-09-14T16:49:49.995Z,4.57
2022-09-14T16:51:51.435Z,7.30
2022-09-14T16:53:53.394Z,2.50
2022-09-14T16:56:05.674Z,3.05
2022-09-14T16:58:07.132Z,5.10
2022-09-14T17:00:09.168Z,4.25
2022-09-14T17:02:11.449Z,6.13
2022-09-14T17:04:15.049Z,3.05
2022-09-14T17:06:18.072Z,4.15
2022-09-14T17:08:19.754Z,5.23
2022-09-14T17:10:21.273Z,4.95
2022-09-14T17:12:23.923Z,2.78
2022-09-14T17:14:27.393Z,6.18
2022-09-14T17:16:29.327Z,5.50
2022-09-14T17:18:31.539Z,3.67
2022-09-14T17:20:33.074Z,6.13
2022-09-14T17:22:34.624Z,6.40
2022-09-14T17:24:36.463Z,4.68
2022-09-14T17:26:38.526Z,3.17
2022-09-14T17:28:40.666Z,8.57
2022-09-14T17:30:43.222Z,3.17
2022-09-14T17:32:44.723Z,7.43
2022-09-14T17:34:46.835Z,11.02
2022-09-14T17:36:48.331Z,1.60
2022-09-14T17:38:50.445Z,4.90
2022-09-14T17:40:52.214Z,4.13
2022-09-14T17:42:53.802Z,1.08
2022-09-14T17:44:55.402Z,4.10
2022-09-14T17:46:57.077Z,2.90
2022-09-14T17:48:59.541Z,8.05
2022-09-14T17:51:05.458Z,6.90
2022-09-14T17:53:07.162Z,3.25
2022-09-14T17:55:08.909Z,5.70
2022-09-14T17:57:10.374Z,4.75
2022-09-14T17:59:16.843Z,2.45
2022-09-14T18:01:19.709Z,4.88
2022-09-14T18:03:21.310Z,6.20
2022-09-14T18:05:22.836Z,3.85
2022-09-14T18:07:24.244Z,6.53
2022-09-14T18:09:25.946Z,7.95
2022-09-14T18:11:28.520Z,4.95
2022-09-14T18:13:30.072Z,7.28
2022-09-14T18:15:31.778Z,7.93
2022-09-14T18:17:33.206Z,8.77
2022-09-14T18:19:34.694Z,9.55
2022-09-14T18:21:36.198Z,5.95
2022-09-14T18:23:37.708Z,15.90
2022-09-14T18:25:42.275Z,10.55
2022-09-14T18:27:43.741Z,9.98
2022-09-14T18:29:45.395Z,5.03
2022-09-14T18:31:47.297Z,7.03
2022-09-14T18:33:52.947Z,12.10
2022-09-14T18:35:54.384Z,6.35
2022-09-14T18:37:56.033Z,7.78
2022-09-14T18:39:57.616Z,8.68
2022-09-14T18:42:03.345Z,8.13
2022-09-14T18:44:18.035Z,6.25
2022-09-14T18:46:24.500Z,6.53
2022-09-14T18:48:42.016Z,8.18
2022-09-14T18:51:02.426Z,10.02
2022-09-14T18:53:13.771Z,9.10
2022-09-14T18:55:22.547Z,7.60
2022-09-14T18:57:30.100Z,7.28
2022-09-14T18:59:39.459Z,4.68
2022-09-14T19:01:55.646Z,6.90
2022-09-14T19:04:01.739Z,10.98
2022-09-14T19:06:18.905Z,4.75
2022-09-14T19:08:27.160Z,6.28
2022-09-14T19:10:29.440Z,7.85
2022-09-14T19:12:30.896Z,2.67
2022-09-14T19:14:32.554Z,6.85
2022-09-14T19:16:34.111Z,3.03
2022-09-14T19:18:35.738Z,5.95
2022-09-14T19:21:04.817Z,5.45
2022-09-14T19:22:59.979Z,9.25
2022-09-14T19:25:01.566Z,6.97
2022-09-14T19:27:03.133Z,6.68
2022-09-14T19:29:07.250Z,9.45
2022-09-14T19:31:11.802Z,5.25
2022-09-14T19:33:13.188Z,4.65
2022-09-14T19:35:14.687Z,8.20
2022-09-14T19:37:16.200Z,9.38
2022-09-14T19:39:17.576Z,4.20
2022-09-14T19:41:20.121Z,6.30
2022-09-14T19:43:21.610Z,10.45
2022-09-14T19:45:23.157Z,9.18
2022-09-14T19:47:24.634Z,11.80
2022-09-14T19:49:26.654Z,10.77
2022-09-14T19:51:28.857Z,10.35
2022-09-14T19:53:31.049Z,6.22
2022-09-14T19:55:33.099Z,8.77
2022-09-14T19:57:37.431Z,4.20
2022-09-14T19:59:38.797Z,11.43
2022-09-14T20:01:41.037Z,11.80
2022-09-14T20:03:43.524Z,10.00
2022-09-14T20:05:45.043Z,15.93
2022-09-14T20:07:47.734Z,8.75
2022-09-14T20:09:49.100Z,5.28
2022-09-14T20:11:51.473Z,6.80
2022-09-14T20:13:54.229Z,10.18
2022-09-14T20:15:55.743Z,6.70
2022-09-14T20:17:57.619Z,7.20
2022-09-14T20:19:59.458Z,13.63
2022-09-14T20:22:00.989Z,8.13
2022-09-14T20:24:15.821Z,14.43
2022-09-14T20:26:18.543Z,13.80
2022-09-14T20:28:25.269Z,7.80
2022-09-14T20:30:26.698Z,8.15
2022-09-14T20:32:28.097Z,8.68
2022-09-14T20:34:29.749Z,9.05
2022-09-14T20:36:32.390Z,8.05
2022-09-14T20:38:34.078Z,12.18
2022-09-14T20:40:35.587Z,11.63
2022-09-14T20:42:37.133Z,12.45
2022-09-14T20:44:38.706Z,14.35
2022-09-14T20:46:41.342Z,14.38
2022-09-14T20:48:43.364Z,8.40
2022-09-14T20:50:51.818Z,5.75
2022-09-14T20:52:53.347Z,10.15
2022-09-14T20:54:54.733Z,6.30
2022-09-14T20:56:57.505Z,9.88
2022-09-14T20:59:02.414Z,11.45
2022-09-14T21:01:05.814Z,6.55
2022-09-14T21:03:07.461Z,5.97
2022-09-14T21:05:09.049Z,6.28
2022-09-14T21:07:10.814Z,10.35
2022-09-14T21:09:13.453Z,4.18
2022-09-14T21:11:17.035Z,4.75
2022-09-14T21:13:19.517Z,15.57
2022-09-14T21:15:21.783Z,8.10
2022-09-14T21:17:23.340Z,7.85
2022-09-14T21:19:27.150Z,11.27
2022-09-14T21:21:28.873Z,4.05
2022-09-14T21:23:30.233Z,6.15
2022-09-14T21:25:32.069Z,5.57
2022-09-14T21:27:33.477Z,6.82
2022-09-14T21:29:34.920Z,5.05
2022-09-14T21:34:03.362Z,4.63
2022-09-14T21:36:13.293Z,9.35
2022-09-14T21:38:14.726Z,5.38
2022-09-14T21:40:18.413Z,3.53
2022-09-14T21:42:19.934Z,5.57
2022-09-14T21:44:21.702Z,7.00
2022-09-14T21:46:23.867Z,4.30
2022-09-14T21:48:29.002Z,4.28
2022-09-14T21:50:36.328Z,8.48
2022-09-14T21:52:45.105Z,6.30
2022-09-14T21:54:49.751Z,10.60
2022-09-14T21:56:59.243Z,5.00
2022-09-14T21:59:08.173Z,2.65
2022-09-14T22:01:13.813Z,2.90
2022-09-14T22:03:19.303Z,14.05
2022-09-14T22:05:24.753Z,3.80
2022-09-14T22:07:30.650Z,1.55
2022-09-14T22:09:37.326Z,2.35
2022-09-14T22:11:45.154Z,5.68
2022-09-14T22:14:00.654Z,4.70
2022-09-14T22:16:11.937Z,6.00
2022-09-14T22:18:14.449Z,3.42
2022-09-14T22:20:16.695Z,2.45
2022-09-14T22:22:18.121Z,7.20
2022-09-14T22:24:21.179Z,6.18
2022-09-14T22:26:23.242Z,7.82
2022-09-14T22:28:25.177Z,6.30
2022-09-14T22:30:26.687Z,4.18
2022-09-14T22:32:28.075Z,3.97
2022-09-14T22:34:29.590Z,6.10
2022-09-14T22:36:31.281Z,6.97
2022-09-14T22:38:34.305Z,6.75
2022-09-14T22:40:35.754Z,2.25
2022-09-14T22:42:37.618Z,4.47
2022-09-14T22:44:39.205Z,4.18
2022-09-14T22:46:41.198Z,2.22
2022-09-14T22:48:42.681Z,5.25
2022-09-14T22:50:48.305Z,2.28
2022-09-14T22:52:49.829Z,8.52
2022-09-14T22:54:51.263Z,3.13
2022-09-14T22:56:52.987Z,5.50
2022-09-14T22:58:54.824Z,2.03
2022-09-14T23:00:56.319Z,2.47
2022-09-14T23:02:57.821Z,7.38
2022-09-14T23:04:59.377Z,4.97
2022-09-14T23:07:00.793Z,4.63
2022-09-14T23:09:02.534Z,7.78
2022-09-14T23:11:08.371Z,6.20
2022-09-14T23:13:10.049Z,5.80
2022-09-14T23:15:11.478Z,5.05
2022-09-14T23:17:13.100Z,6.63
2022-09-14T23:19:16.866Z,5.38
2022-09-14T23:21:18.779Z,3.50
2022-09-14T23:23:20.233Z,4.18
2022-09-14T23:25:21.602Z,6.95
2022-09-14T23:27:22.993Z,5.18
2022-09-14T23:29:24.682Z,9.55
2022-09-14T23:31:26.762Z,3.08
2022-09-14T23:33:29.005Z,4.22
2022-09-14T23:35:31.083Z,2.58
2022-09-14T23:37:34.541Z,3.00
2022-09-14T23:39:36.103Z,2.55
2022-09-14T23:41:37.989Z,7.57
2022-09-14T23:43:40.423Z,8.68
2022-09-14T23:45:43.148Z,4.45
2022-09-14T23:47:46.017Z,3.00
2022-09-14T23:49:47.484Z,3.28
2022-09-14T23:51:49.091Z,5.80
2022-09-14T23:53:50.701Z,6.07
2022-09-14T23:55:52.526Z,9.20
2022-09-14T23:57:54.342Z,3.75
2022-09-14T23:59:55.923Z,2.90
